Карточка аэропорта USTR

Внимание!
Информация на этой странице в стадии наполнения.
Если вы не увидели какой-то информации, или заметили неточность - пожалуйста сообщите нам!
Спасибо!
Команда RU-STAFF
Название аэропортаРощино
Название аэропорта (англ.)Roshschino
Превышение378 ft. (115.2 m.)
Координаты57°10.098', 65°19.002'
Высота перехода3000ft
Эшелон переходаQNH⩾1013hPa:FL040; QNH⩾977hPa:FL050; QNH⩽977hPa:FL060
Коды ответчика5101-5137
Зона ОрВДТюмень РПИ (USTV)
Данные METARUSTR 220745Z 02004MPS 9999 OVC004 15/15 Q1009 R30/290060 R21/290060 TEMPO 2100 -SHRA OVC002 BKN016CB RMK QBB140
Проноз погоды (TAF)USTR 220456Z 2206/2306 01004G12MPS 4000 BR BKN004 BKN016CB TEMPO 2206/2209 1000 SHRA BR BKN003 BKN016CB FM220900 05005G13MPS 6000 SCT007 BKN016CB TEMPO 2209/2218 2100 -SHRA BKN006 BKN016CB TEMPO 2218/2306 02014MPS 1000 TSRA VV003
NOTAMshow/hide NOTAM
AWOS   TABLE

Информация о ВПП

ВПП Длина ВПП (м.) Покрытие Курс ВПП Частота ILS
033003Асфальтобетон34108.3
122704Асфальтобетон121 
213003Асфальтобетон214110.7
302704Асфальтобетон301 

Диспетчерские позиции

Позывной Наименование органа УВД Частота
USTR_GNDТюмень-Руление119.000
USTR_R_APPТюмень-Круг126.100
USTR_TWRТюмень-Старт118.200



Спутниковое изображение